Time;durP1;ratioP1;P1;durP2;ratioP2;P2;SDS_P1;SDS_P2;PMS_P1;PMS_P2;Temp;Humidity;BMP_temperature;BMP_pressure;BME280_temperature;BME280_humidity;BME280_pressure;Samples;Min_cycle;Max_cycle;Signal;HPM_P1;HPM_P2
2023/03/14 00:10:50;;;;;;;3.80;1.70;;;;;;;13.15;41.72;97578.58;223893;185;143279;-70
2023/03/14 00:15:53;;;;;;;4.40;1.80;;;;;;;13.24;41.47;97577.85;223550;184;138995;-70
2023/03/14 00:21:01;;;;;;;3.80;1.70;;;;;;;13.34;41.19;97571.43;223570;185;136339;-72
2023/03/14 00:26:13;;;;;;;3.10;1.60;;;;;;;13.43;40.74;97562.83;223559;185;144925;-71
2023/03/14 00:31:16;;;;;;;2.80;1.80;;;;;;;13.50;40.80;97561.33;223646;206;138925;-70
2023/03/14 00:36:20;;;;;;;4.60;1.80;;;;;;;13.58;40.70;97561.63;223549;184;136857;-70
2023/03/14 00:41:24;;;;;;;3.30;1.60;;;;;;;13.62;40.77;97550.65;223541;184;146681;-69
2023/03/14 00:46:27;;;;;;;4.50;1.70;;;;;;;13.65;40.66;97536.65;223445;184;139028;-72
2023/03/14 00:51:30;;;;;;;5.40;2.10;;;;;;;13.68;40.45;97522.80;223223;184;136767;-74
2023/03/14 00:56:34;;;;;;;3.70;2.00;;;;;;;13.68;40.49;97513.88;222989;184;146435;-73
2023/03/14 01:01:39;;;;;;;3.40;1.80;;;;;;;13.72;40.37;97505.59;223514;184;139589;-73
2023/03/14 01:06:43;;;;;;;7.50;1.90;;;;;;;13.72;40.47;97489.45;223348;185;136751;-72
2023/03/14 01:11:46;;;;;;;2.70;2.00;;;;;;;13.70;40.24;97470.21;223440;184;146240;-72
2023/03/14 01:16:50;;;;;;;3.60;1.90;;;;;;;13.64;40.08;97446.21;223515;184;139526;-72
2023/03/14 01:21:53;;;;;;;3.50;1.90;;;;;;;13.58;40.18;97424.36;223523;184;136164;-73
2023/03/14 01:26:56;;;;;;;4.40;2.00;;;;;;;13.57;40.21;97415.96;223539;184;145434;-72
2023/03/14 01:32:01;;;;;;;4.40;1.70;;;;;;;13.55;40.37;97419.34;223620;184;139327;-72
2023/03/14 01:37:05;;;;;;;2.60;1.90;;;;;;;13.46;40.30;97407.53;223542;183;135990;-72
2023/03/14 01:42:09;;;;;;;2.30;1.70;;;;;;;13.39;40.46;97390.60;223536;183;145268;-72
2023/03/14 01:47:12;;;;;;;2.60;1.70;;;;;;;13.32;40.72;97391.33;223637;183;138094;-72
2023/03/14 01:52:42;;;;;;;5.60;1.90;;;;;;;13.26;40.65;97400.47;223577;183;136014;-70
2023/03/14 01:57:49;;;;;;;3.10;1.80;;;;;;;13.27;40.66;97384.18;223313;183;145871;-70
2023/03/14 02:02:59;;;;;;;6.00;2.00;;;;;;;13.26;40.85;97382.52;223618;184;138642;-70
2023/03/14 02:08:06;;;;;;;3.50;2.20;;;;;;;13.21;41.11;97365.69;221142;183;137379;-73
2023/03/14 02:13:20;;;;;;;2.30;1.70;;;;;;;13.15;41.33;97345.87;223669;183;146988;-73
2023/03/14 02:18:40;;;;;;;4.70;1.90;;;;;;;13.11;41.46;97337.89;223526;184;139330;-73
2023/03/14 02:24:21;;;;;;;4.20;2.20;;;;;;;13.02;41.97;97329.98;223573;183;136160;-72
2023/03/14 02:29:35;;;;;;;3.60;1.90;;;;;;;12.86;42.33;97319.02;223714;183;146365;-72
2023/03/14 02:34:42;;;;;;;2.40;1.70;;;;;;;12.73;42.50;97304.21;223685;183;138456;-72
2023/03/14 02:39:49;;;;;;;3.10;1.90;;;;;;;12.64;42.75;97288.38;223594;183;136804;-72
2023/03/14 02:45:09;;;;;;;4.50;2.30;;;;;;;12.61;42.91;97281.81;223629;183;145079;-73
2023/03/14 02:50:20;;;;;;;4.60;2.20;;;;;;;12.59;43.08;97276.14;223647;183;139085;-72
2023/03/14 02:55:25;;;;;;;4.00;1.80;;;;;;;12.54;43.27;97270.13;223559;184;136867;-71
2023/03/14 03:00:30;;;;;;;2.90;2.10;;;;;;;12.51;43.37;97262.95;223601;183;145773;-71
2023/03/14 03:05:34;;;;;;;5.50;1.90;;;;;;;12.50;43.50;97270.69;223572;184;138528;-71
2023/03/14 03:10:37;;;;;;;3.60;2.10;;;;;;;12.47;43.60;97260.41;223592;183;136518;-72
2023/03/14 03:15:42;;;;;;;6.90;2.50;;;;;;;12.42;43.80;97250.33;223333;183;146180;-71
2023/03/14 03:20:46;;;;;;;3.20;1.90;;;;;;;12.39;43.93;97251.38;223384;183;139245;-70
2023/03/14 03:25:51;;;;;;;5.00;2.10;;;;;;;12.36;43.92;97248.68;223627;184;137205;-69
2023/03/14 03:30:54;;;;;;;3.80;2.30;;;;;;;12.33;44.00;97237.59;223637;184;145329;-70
2023/03/14 03:35:57;;;;;;;7.00;2.60;;;;;;;12.28;44.13;97235.91;223559;183;142208;-70
2023/03/14 03:41:06;;;;;;;7.30;2.80;;;;;;;12.19;44.37;97240.87;223488;183;137358;-73
2023/03/14 03:46:10;;;;;;;10.40;4.10;;;;;;;12.07;44.85;97243.61;223707;183;145531;-71
2023/03/14 03:51:15;;;;;;;10.70;4.80;;;;;;;11.92;45.01;97232.83;222035;184;139503;-72
2023/03/14 03:56:19;;;;;;;11.00;4.60;;;;;;;11.79;45.30;97229.58;222499;183;138145;-72
2023/03/14 04:01:24;;;;;;;12.10;4.60;;;;;;;11.73;45.57;97231.08;223646;184;145526;-72
2023/03/14 04:06:28;;;;;;;16.70;4.90;;;;;;;11.69;45.75;97240.16;223523;184;138409;-71
2023/03/14 04:11:34;;;;;;;11.10;3.80;;;;;;;11.63;46.19;97242.57;223702;184;137238;-71
2023/03/14 04:17:01;;;;;;;16.80;9.50;;;;;;;11.65;46.61;97231.17;223527;184;280965;-71
2023/03/14 04:22:05;;;;;;;10.50;6.20;;;;;;;11.81;46.09;97235.98;223610;184;138341;-73
2023/03/14 04:27:14;;;;;;;21.50;13.10;;;;;;;11.90;45.99;97243.52;223598;184;137136;-71
2023/03/14 04:32:20;;;;;;;10.90;3.60;;;;;;;11.90;46.08;97248.18;223579;184;146490;-71
2023/03/14 04:37:24;;;;;;;9.90;3.70;;;;;;;11.68;46.23;97248.46;223088;183;139100;-74
2023/03/14 04:42:30;;;;;;;22.20;4.90;;;;;;;11.45;46.82;97259.70;223685;184;137122;-72
2023/03/14 04:47:34;;;;;;;14.60;4.30;;;;;;;11.28;47.39;97268.86;223706;184;145631;-72
2023/03/14 04:52:38;;;;;;;16.20;4.60;;;;;;;11.21;48.03;97274.20;223557;183;139183;-72
2023/03/14 04:57:43;;;;;;;20.70;5.00;;;;;;;11.03;48.59;97282.05;223550;182;136476;-72
2023/03/14 05:02:46;;;;;;;31.90;20.20;;;;;;;11.00;48.94;97288.77;223712;183;146240;-73
2023/03/14 05:08:22;;;;;;;9.20;4.20;;;;;;;11.00;48.77;97293.30;223511;183;139295;-71
2023/03/14 05:13:46;;;;;;;10.50;3.70;;;;;;;10.99;48.98;97290.28;222297;183;136346;-72
2023/03/14 05:19:04;;;;;;;10.20;4.10;;;;;;;10.95;49.13;97283.50;223822;183;147123;-72
2023/03/14 05:24:28;;;;;;;17.20;4.80;;;;;;;10.85;49.61;97279.13;222478;183;140401;-73
2023/03/14 05:29:34;;;;;;;11.20;5.90;;;;;;;10.71;50.23;97283.74;223543;183;136567;-73
2023/03/14 05:35:11;;;;;;;17.60;6.40;;;;;;;10.60;50.74;97269.13;223661;183;145222;-74
2023/03/14 05:40:34;;;;;;;17.10;5.60;;;;;;;10.44;51.07;97255.34;223639;183;138195;-74
2023/03/14 05:45:38;;;;;;;17.50;5.80;;;;;;;10.36;51.71;97247.00;223634;184;136796;-73
2023/03/14 05:51:00;;;;;;;14.10;5.80;;;;;;;10.33;51.98;97246.42;223650;183;146242;-72
2023/03/14 05:56:21;;;;;;;9.90;4.80;;;;;;;10.31;51.87;97248.67;223675;183;138867;-72
2023/03/14 06:01:51;;;;;;;9.20;4.40;;;;;;;10.36;52.14;97252.83;223629;183;136487;-72
2023/03/14 06:06:57;;;;;;;9.90;4.40;;;;;;;10.42;52.07;97242.01;223563;183;145910;-72
2023/03/14 06:12:00;;;;;;;7.50;4.80;;;;;;;10.48;52.31;97235.66;223602;183;140550;-73
2023/03/14 06:17:07;;;;;;;7.50;4.40;;;;;;;10.54;52.03;97236.86;223695;183;136689;-72
2023/03/14 06:22:16;;;;;;;11.00;4.60;;;;;;;10.64;51.69;97229.41;221813;184;146406;-73
2023/03/14 06:27:21;;;;;;;15.20;5.30;;;;;;;10.72;51.36;97226.33;223121;183;138363;-74
2023/03/14 06:32:27;;;;;;;;;;;;;;;10.82;51.16;97230.41;223031;183;136984;-73
2023/03/14 06:37:38;;;;;;;17.00;4.90;;;;;;;10.94;51.61;97224.14;223224;183;145731;-76
2023/03/14 06:42:43;;;;;;;8.60;4.50;;;;;;;11.06;52.16;97218.59;223642;184;139003;-72
2023/03/14 06:47:48;;;;;;;;;;;;;;;11.17;51.79;97212.83;223623;183;136645;-70
2023/03/14 06:52:53;;;;;;;14.70;4.90;;;;;;;11.29;51.49;97206.48;222618;183;146252;-73
2023/03/14 06:57:59;;;;;;;13.20;5.10;;;;;;;11.43;51.16;97195.58;223601;183;138431;-73
2023/03/14 07:03:04;;;;;;;20.90;5.80;;;;;;;11.57;50.89;97197.94;223738;183;137071;-73
2023/03/14 07:08:12;;;;;;;13.10;4.80;;;;;;;11.76;50.73;97185.52;223494;183;146966;-73
2023/03/14 07:13:16;;;;;;;12.80;4.60;;;;;;;12.07;49.71;97179.37;223610;184;138169;-73
2023/03/14 07:18:25;;;;;;;13.00;4.20;;;;;;;12.41;49.12;97183.02;223544;183;137506;-74
2023/03/14 07:23:30;;;;;;;10.80;4.10;;;;;;;12.74;48.26;97167.79;223656;184;145211;-73
2023/03/14 07:28:34;;;;;;;12.90;4.20;;;;;;;13.07;47.32;97167.53;223608;184;138975;-74
2023/03/14 07:33:44;;;;;;;7.60;2.90;;;;;;;13.36;46.64;97168.63;223765;182;137314;-73
2023/03/14 07:38:48;;;;;;;7.20;2.90;;;;;;;13.63;45.70;97161.89;223701;182;145554;-74
2023/03/14 07:44:24;;;;;;;10.40;2.70;;;;;;;13.95;45.01;97152.14;223605;182;138498;-75
2023/03/14 07:49:28;;;;;;;8.10;2.50;;;;;;;14.19;44.59;97140.60;223714;182;136920;-74
2023/03/14 07:54:32;;;;;;;9.40;2.70;;;;;;;14.41;44.21;97145.91;223774;182;145395;-74
2023/03/14 07:59:35;;;;;;;11.10;3.10;;;;;;;14.58;43.50;97147.12;223782;182;138044;-74
2023/03/14 08:04:40;;;;;;;11.50;2.80;;;;;;;14.73;43.33;97158.91;223145;182;138186;-72
2023/03/14 08:09:43;;;;;;;14.60;3.10;;;;;;;14.87;42.94;97164.30;223831;182;145407;-72
2023/03/14 08:14:47;;;;;;;8.20;2.20;;;;;;;15.05;42.70;97165.39;223900;182;138598;-73
2023/03/14 08:19:51;;;;;;;4.90;2.30;;;;;;;15.22;42.67;97155.44;223816;182;137096;-73
2023/03/14 08:24:54;;;;;;;9.20;2.90;;;;;;;15.38;41.94;97167.60;223655;182;148566;-72
2023/03/14 08:29:58;;;;;;;3.70;2.10;;;;;;;15.42;41.54;97166.69;223739;182;138940;-74
2023/03/14 08:35:02;;;;;;;5.70;2.40;;;;;;;15.41;41.12;97156.27;223836;182;137789;-74
2023/03/14 08:40:08;;;;;;;7.10;2.50;;;;;;;15.42;41.25;97171.51;223686;182;146737;-73
2023/03/14 08:45:13;;;;;;;;;;;;;;;15.49;41.67;97156.03;223794;182;138862;-75
2023/03/14 08:50:20;;;;;;;5.40;2.40;;;;;;;15.59;41.19;97151.81;223820;182;130979;-75
2023/03/14 08:55:24;;;;;;;8.80;2.60;;;;;;;15.63;40.72;97152.14;223812;182;148200;-74
2023/03/14 09:00:27;;;;;;;5.00;2.40;;;;;;;15.68;40.40;97154.16;223758;182;138970;-73
2023/03/14 09:05:35;;;;;;;4.80;2.30;;;;;;;15.70;40.31;97153.30;223710;183;137222;-74
2023/03/14 09:10:39;;;;;;;4.70;2.50;;;;;;;15.75;40.08;97171.41;223871;182;148132;-75
2023/03/14 09:15:43;;;;;;;6.10;2.60;;;;;;;15.80;40.16;97187.00;223757;182;138535;-75
2023/03/14 09:20:46;;;;;;;10.00;2.50;;;;;;;15.90;40.32;97195.45;223774;180;136412;-75
2023/03/14 09:25:55;;;;;;;4.70;2.10;;;;;;;15.92;39.24;97195.88;223786;182;147979;-74
2023/03/14 09:31:05;;;;;;;5.00;2.30;;;;;;;15.85;38.21;97182.32;223715;182;138838;-74
2023/03/14 09:36:10;;;;;;;5.60;2.30;;;;;;;15.82;38.87;97190.55;223655;182;137486;-74
2023/03/14 09:41:24;;;;;;;7.20;2.20;;;;;;;15.76;38.64;97204.88;223747;181;148090;-75
2023/03/14 09:46:31;;;;;;;6.70;2.40;;;;;;;15.73;38.92;97193.53;223710;181;139567;-73
2023/03/14 09:51:36;;;;;;;9.60;2.20;;;;;;;15.77;38.79;97205.45;223623;181;136726;-74
2023/03/14 09:56:40;;;;;;;4.10;2.60;;;;;;;15.77;38.83;97203.80;223758;182;147913;-73
2023/03/14 10:01:44;;;;;;;5.70;1.90;;;;;;;15.75;38.74;97207.17;222750;182;139089;-72
2023/03/14 10:06:48;;;;;;;5.60;2.20;;;;;;;15.77;38.98;97218.04;223602;184;137174;-73
2023/03/14 10:11:55;;;;;;;3.30;2.30;;;;;;;15.84;38.77;97213.36;223669;184;147766;-73
2023/03/14 10:17:10;;;;;;;3.40;2.20;;;;;;;15.95;38.95;97224.53;223398;184;138703;-73
2023/03/14 10:22:15;;;;;;;4.00;2.10;;;;;;;16.13;38.87;97225.56;223635;184;136426;-75
2023/03/14 10:27:21;;;;;;;4.80;2.40;;;;;;;16.27;38.85;97227.35;223544;184;147844;-74
2023/03/14 10:32:36;;;;;;;6.10;2.10;;;;;;;16.50;39.04;97228.13;223614;184;138494;-75
2023/03/14 10:37:59;;;;;;;5.40;2.80;;;;;;;16.65;38.50;97230.81;223401;184;137381;-75
2023/03/14 10:43:14;;;;;;;6.60;2.70;;;;;;;16.70;38.14;97232.22;223569;184;149856;-75
2023/03/14 10:48:24;;;;;;;4.50;2.50;;;;;;;16.64;38.10;97224.84;223532;184;138922;-75
2023/03/14 10:53:38;;;;;;;6.50;2.50;;;;;;;16.57;38.41;97236.90;223457;184;136553;-74
2023/03/14 10:58:44;;;;;;;8.40;2.80;;;;;;;16.51;38.69;97240.13;223584;184;147648;-73
2023/03/14 11:03:56;;;;;;;3.80;2.20;;;;;;;16.43;38.86;97238.23;223531;184;137792;-74
2023/03/14 11:09:23;;;;;;;6.10;2.30;;;;;;;16.40;39.08;97228.89;223648;182;137223;-74
2023/03/14 11:14:41;;;;;;;3.10;1.90;;;;;;;16.38;39.35;97217.83;223696;182;147223;-74
2023/03/14 11:19:59;;;;;;;3.70;2.50;;;;;;;16.36;39.52;97216.26;223599;181;138951;-75
2023/03/14 11:25:27;;;;;;;19.80;14.60;;;;;;;16.31;39.74;97213.59;223706;182;137468;-73
2023/03/14 11:30:37;;;;;;;5.50;2.50;;;;;;;16.26;40.14;97205.64;223562;182;147026;-75
2023/03/14 11:35:52;;;;;;;4.90;2.50;;;;;;;16.21;40.23;97199.36;223607;183;138849;-74
2023/03/14 11:40:58;;;;;;;10.00;2.50;;;;;;;16.21;40.47;97201.35;223889;182;137016;-75
2023/03/14 11:46:05;;;;;;;;;;;;;;;16.23;40.76;97201.30;223735;182;148949;-75
2023/03/14 11:51:29;;;;;;;7.90;2.60;;;;;;;16.24;40.81;97197.19;223804;182;138674;-74
2023/03/14 11:56:50;;;;;;;4.90;2.60;;;;;;;16.22;40.65;97197.23;223605;182;136843;-75
2023/03/14 12:02:06;;;;;;;5.40;2.40;;;;;;;16.18;40.77;97197.96;223684;182;147715;-74
2023/03/14 12:07:19;;;;;;;;;;;;;;;16.13;40.91;97204.30;223669;182;138793;-75
2023/03/14 12:12:26;;;;;;;4.40;2.50;;;;;;;16.07;41.09;97197.42;223215;182;133037;-74
2023/03/14 12:17:43;;;;;;;6.80;2.60;;;;;;;16.01;41.34;97197.17;223760;182;147727;-74
2023/03/14 12:22:51;;;;;;;8.00;2.50;;;;;;;15.99;41.65;97195.27;223636;182;139338;-74
2023/03/14 12:27:54;;;;;;;6.20;2.40;;;;;;;15.99;41.69;97184.55;223658;182;137073;-74
2023/03/14 12:33:18;;;;;;;7.60;2.90;;;;;;;16.00;41.75;97183.03;223667;183;147013;-75
2023/03/14 12:38:27;;;;;;;5.90;2.70;;;;;;;16.03;41.82;97173.86;223721;182;139206;-74
2023/03/14 12:43:33;;;;;;;7.70;2.90;;;;;;;16.07;41.67;97162.69;223828;182;136857;-74
2023/03/14 12:48:39;;;;;;;5.60;2.50;;;;;;;16.12;41.37;97150.40;223713;182;146420;-75
2023/03/14 12:53:54;;;;;;;6.80;2.30;;;;;;;16.15;41.32;97142.30;223768;182;138909;-76
2023/03/14 12:59:00;;;;;;;4.60;2.40;;;;;;;16.18;40.98;97140.51;223753;182;136723;-76
2023/03/14 13:04:11;;;;;;;5.50;2.50;;;;;;;16.22;40.95;97148.13;223715;182;147525;-75
2023/03/14 13:09:29;;;;;;;9.10;2.70;;;;;;;16.15;40.83;97158.15;222996;182;138303;-75
2023/03/14 13:14:33;;;;;;;7.70;2.70;;;;;;;16.05;41.17;97154.86;223719;182;136943;-76
2023/03/14 13:19:36;;;;;;;5.20;2.60;;;;;;;15.98;41.47;97163.59;223732;182;147229;-76
2023/03/14 13:24:40;;;;;;;6.70;2.50;;;;;;;15.90;41.61;97169.86;223665;182;138874;-75
2023/03/14 13:29:44;;;;;;;4.40;2.60;;;;;;;15.80;41.95;97179.23;223636;183;137870;-76
2023/03/14 13:34:48;;;;;;;6.30;2.80;;;;;;;15.72;42.28;97184.55;223771;182;148521;-74
2023/03/14 13:39:55;;;;;;;76.20;55.50;;;;;;;15.63;42.92;97194.10;223488;182;138572;-74
2023/03/14 13:44:59;;;;;;;8.80;3.20;;;;;;;15.62;43.00;97197.84;223722;182;136789;-74
2023/03/14 13:50:03;;;;;;;4.50;2.50;;;;;;;15.57;43.35;97207.66;223703;182;147379;-76
2023/03/14 13:55:18;;;;;;;4.40;2.20;;;;;;;15.49;43.64;97201.98;223656;182;138137;-75
2023/03/14 14:00:27;;;;;;;47.30;33.30;;;;;;;15.40;43.85;97211.39;223664;182;137188;-76
2023/03/14 14:05:31;;;;;;;4.60;2.40;;;;;;;15.34;44.18;97223.30;223693;182;147497;-76
2023/03/14 14:10:37;;;;;;;8.00;2.50;;;;;;;15.30;44.35;97224.06;223648;181;138342;-76
2023/03/14 14:15:46;;;;;;;4.30;2.40;;;;;;;15.24;44.54;97230.14;223670;182;139060;-76
2023/03/14 14:20:51;;;;;;;6.60;2.50;;;;;;;15.18;44.73;97239.89;223640;182;147704;-76
2023/03/14 14:25:58;;;;;;;4.50;2.60;;;;;;;15.14;45.05;97242.50;223646;182;138785;-75
2023/03/14 14:31:02;;;;;;;4.00;2.60;;;;;;;15.08;45.60;97246.83;223602;183;136542;-77
2023/03/14 14:36:22;;;;;;;40.40;28.20;;;;;;;15.00;46.13;97240.80;223711;182;148915;-78
2023/03/14 14:41:29;;;;;;;5.20;3.00;;;;;;;14.92;46.50;97238.05;222768;183;139971;-75
2023/03/14 14:46:37;;;;;;;9.90;2.60;;;;;;;14.84;47.00;97242.33;223679;182;137300;-76
2023/03/14 14:52:20;;;;;;;6.80;2.50;;;;;;;14.74;47.62;97247.88;223725;182;147660;-77
2023/03/14 14:57:37;;;;;;;4.60;2.50;;;;;;;14.64;48.35;97252.17;223777;183;138988;-76
2023/03/14 15:02:46;;;;;;;3.90;2.60;;;;;;;14.60;48.91;97252.95;223764;182;136409;-76
2023/03/14 15:07:51;;;;;;;6.60;2.90;;;;;;;14.58;49.30;97259.13;223720;182;147645;-76
2023/03/14 15:12:54;;;;;;;6.80;3.00;;;;;;;14.54;49.84;97256.17;223543;182;138157;-76
2023/03/14 15:17:58;;;;;;;5.60;2.60;;;;;;;14.49;50.08;97260.86;223746;182;137221;-76
2023/03/14 15:23:02;;;;;;;7.20;3.10;;;;;;;14.41;50.76;97272.61;223719;182;149919;-77
2023/03/14 15:28:16;;;;;;;6.00;2.40;;;;;;;14.35;50.87;97268.79;223684;182;139622;-77
2023/03/14 15:33:24;;;;;;;8.60;2.70;;;;;;;14.30;51.21;97262.73;223670;181;137051;-76
2023/03/14 15:38:28;;;;;;;4.60;2.80;;;;;;;14.27;51.43;97266.39;223671;182;148062;-75
2023/03/14 15:43:31;;;;;;;5.40;3.20;;;;;;;14.22;51.88;97264.71;223635;182;139272;-74
2023/03/14 15:48:35;;;;;;;5.10;2.40;;;;;;;14.22;51.92;97273.91;223683;182;137981;-75
2023/03/14 15:53:39;;;;;;;5.90;2.80;;;;;;;14.14;51.99;97281.16;223767;182;148909;-75
2023/03/14 15:58:46;;;;;;;4.60;2.60;;;;;;;14.04;52.37;97285.98;223628;182;138387;-75
2023/03/14 16:03:52;;;;;;;7.50;2.80;;;;;;;14.02;52.64;97289.42;223731;182;137192;-75
2023/03/14 16:08:56;;;;;;;6.00;2.30;;;;;;;13.98;53.11;97289.35;223737;182;147342;-75
2023/03/14 16:14:00;;;;;;;3.90;2.10;;;;;;;13.82;53.65;97292.14;223757;182;138372;-74
2023/03/14 16:19:07;;;;;;;5.10;2.50;;;;;;;13.68;54.54;97299.70;223708;182;136871;-74
2023/03/14 16:24:10;;;;;;;7.80;2.80;;;;;;;13.63;54.96;97298.25;223760;182;146292;-76
2023/03/14 16:29:14;;;;;;;5.80;2.60;;;;;;;13.63;55.61;97299.68;223632;182;139703;-76
2023/03/14 16:34:17;;;;;;;6.30;3.10;;;;;;;13.53;56.17;97302.15;223729;182;136898;-75
2023/03/14 16:39:21;;;;;;;5.00;2.80;;;;;;;13.47;56.57;97308.90;223706;183;147232;-75
2023/03/14 16:44:24;;;;;;;5.90;4.00;;;;;;;13.39;57.32;97306.50;223827;182;138995;-73
2023/03/14 16:49:27;;;;;;;6.80;3.50;;;;;;;13.33;58.00;97298.46;223640;181;137161;-74
2023/03/14 16:54:34;;;;;;;7.30;3.50;;;;;;;13.26;58.42;97290.93;223775;182;147230;-72
2023/03/14 16:59:37;;;;;;;7.40;3.70;;;;;;;13.22;58.85;97292.94;223760;182;138040;-73
2023/03/14 17:04:40;;;;;;;6.50;3.40;;;;;;;13.18;59.24;97292.94;223084;182;136973;-73
2023/03/14 17:09:44;;;;;;;6.00;3.60;;;;;;;13.14;59.63;97288.22;223707;182;148210;-73
2023/03/14 17:14:47;;;;;;;5.90;3.30;;;;;;;13.11;59.86;97271.65;223790;182;138884;-74
2023/03/14 17:19:51;;;;;;;7.60;3.90;;;;;;;13.06;60.08;97270.54;223687;182;137257;-75
2023/03/14 17:24:54;;;;;;;5.70;3.80;;;;;;;13.03;60.43;97241.67;223563;182;147551;-76
2023/03/14 17:29:58;;;;;;;6.60;3.70;;;;;;;12.98;60.82;97211.83;223776;182;139239;-72
2023/03/14 17:35:01;;;;;;;8.00;4.00;;;;;;;12.95;61.14;97194.52;222061;183;136902;-74
2023/03/14 17:40:05;;;;;;;9.10;4.70;;;;;;;12.88;61.14;97221.95;223745;182;148148;-73
2023/03/14 17:45:09;;;;;;;6.60;4.10;;;;;;;12.79;61.36;97250.75;223694;182;140229;-70
2023/03/14 17:50:14;;;;;;;5.80;4.30;;;;;;;12.74;61.52;97253.90;223681;182;137357;-72
2023/03/14 17:55:18;;;;;;;7.60;4.80;;;;;;;12.75;61.57;97259.41;223612;183;146954;-73
2023/03/14 18:00:22;;;;;;;10.90;5.10;;;;;;;12.80;61.57;97256.89;223504;183;139118;-71
2023/03/14 18:05:26;;;;;;;9.60;5.40;;;;;;;12.83;61.41;97257.85;223778;182;137697;-72
2023/03/14 18:10:30;;;;;;;11.10;5.30;;;;;;;12.85;61.49;97253.20;223699;182;147494;-73
2023/03/14 18:15:35;;;;;;;8.50;4.90;;;;;;;12.82;61.70;97264.19;223612;182;138887;-70
2023/03/14 18:20:39;;;;;;;7.90;4.80;;;;;;;12.83;61.88;97271.54;223718;181;138607;-70
2023/03/14 18:25:42;;;;;;;8.80;4.90;;;;;;;12.84;62.02;97277.01;223642;182;148276;-71
2023/03/14 18:30:51;;;;;;;9.20;5.30;;;;;;;12.80;62.18;97287.37;223635;182;139412;-70
2023/03/14 18:35:54;;;;;;;9.60;6.30;;;;;;;12.77;62.36;97298.11;223686;182;137544;-72
2023/03/14 18:41:10;;;;;;;8.40;5.20;;;;;;;12.75;62.52;97297.30;223736;182;148366;-71
2023/03/14 18:46:16;;;;;;;11.30;5.20;;;;;;;12.71;62.55;97297.25;223701;182;138969;-71
2023/03/14 18:51:19;;;;;;;89.60;67.60;;;;;;;12.81;62.50;97306.33;223689;182;138412;-71
2023/03/14 18:56:25;;;;;;;9.10;5.80;;;;;;;13.01;62.42;97303.77;223699;182;148489;-72
2023/03/14 19:01:33;;;;;;;9.00;5.80;;;;;;;13.10;61.21;97302.65;223694;182;138316;-72
2023/03/14 19:06:36;;;;;;;9.40;6.20;;;;;;;13.11;60.91;97308.30;223664;182;137272;-73
2023/03/14 19:11:40;;;;;;;10.50;6.60;;;;;;;13.07;60.72;97316.48;223755;182;148090;-72
2023/03/14 19:16:44;;;;;;;10.20;6.20;;;;;;;13.00;60.57;97320.72;223726;183;138807;-72
2023/03/14 19:21:47;;;;;;;9.10;5.80;;;;;;;12.92;60.56;97317.84;223761;182;137674;-71
2023/03/14 19:26:51;;;;;;;8.60;6.20;;;;;;;12.84;60.59;97318.47;223643;182;147423;-71
2023/03/14 19:31:56;;;;;;;11.50;5.80;;;;;;;12.78;60.62;97318.18;223566;182;139533;-71
2023/03/14 19:37:00;;;;;;;10.20;6.20;;;;;;;12.67;60.68;97325.80;223652;182;136688;-71
2023/03/14 19:42:04;;;;;;;10.10;6.50;;;;;;;12.52;60.91;97329.80;223530;182;147098;-71
2023/03/14 19:47:09;;;;;;;13.90;7.00;;;;;;;12.35;61.20;97342.84;223699;182;138187;-69
2023/03/14 19:52:17;;;;;;;181.50;139.00;;;;;;;12.20;61.99;97355.11;223666;182;136816;-70
2023/03/14 19:57:21;;;;;;;20.60;11.20;;;;;;;12.06;62.86;97359.61;223794;182;146945;-71
2023/03/14 20:02:24;;;;;;;13.30;8.90;;;;;;;11.96;62.46;97359.67;223562;182;141029;-72
2023/03/14 20:07:31;;;;;;;13.10;8.60;;;;;;;11.80;62.71;97355.46;223797;182;136775;-72
2023/03/14 20:12:35;;;;;;;12.80;8.60;;;;;;;11.65;62.90;97358.34;223714;182;147465;-71
2023/03/14 20:17:38;;;;;;;12.50;9.00;;;;;;;11.48;63.30;97363.25;223690;182;139459;-73
2023/03/14 20:22:44;;;;;;;11.70;8.30;;;;;;;11.33;63.66;97371.95;223661;183;137319;-74
2023/03/14 20:27:50;;;;;;;12.40;8.60;;;;;;;11.26;63.83;97374.05;223712;182;146905;-72
2023/03/14 20:32:54;;;;;;;14.20;9.20;;;;;;;11.26;64.11;97374.08;223643;182;140103;-71
2023/03/14 20:37:57;;;;;;;13.50;9.30;;;;;;;11.27;64.08;97387.20;223724;182;138162;-71
2023/03/14 20:43:01;;;;;;;17.70;9.70;;;;;;;11.24;64.04;97397.80;223705;182;147650;-72
2023/03/14 20:48:05;;;;;;;13.40;9.30;;;;;;;11.18;64.07;97394.13;223625;182;138703;-72
2023/03/14 20:53:08;;;;;;;128.30;95.30;;;;;;;11.14;64.36;97392.13;223720;182;138002;-68
2023/03/14 20:58:12;;;;;;;19.10;13.20;;;;;;;11.20;65.00;97393.92;223632;181;148811;-74
2023/03/14 21:03:17;;;;;;;15.80;10.20;;;;;;;11.12;64.34;97394.05;223708;182;138156;-71
2023/03/14 21:08:23;;;;;;;15.70;9.70;;;;;;;10.96;64.39;97403.91;223820;182;137576;-72
2023/03/14 21:13:26;;;;;;;14.10;9.10;;;;;;;10.81;64.61;97405.39;223804;182;147322;-72
2023/03/14 21:18:30;;;;;;;14.60;9.60;;;;;;;10.73;65.14;97408.27;223683;181;258179;-74
2023/03/14 21:23:33;;;;;;;14.00;9.50;;;;;;;10.80;65.69;97417.08;223773;182;137166;-73
2023/03/14 21:28:37;;;;;;;14.40;9.00;;;;;;;10.93;65.65;97409.84;223742;183;147270;-73
2023/03/14 21:33:40;;;;;;;15.90;8.00;;;;;;;11.06;65.26;97400.81;223714;182;138882;-77
2023/03/14 21:38:44;;;;;;;14.60;8.10;;;;;;;11.20;64.53;97403.55;223683;182;137914;-77
2023/03/14 21:43:47;;;;;;;12.20;7.80;;;;;;;11.30;63.66;97410.35;223697;182;147499;-77
2023/03/14 21:48:52;;;;;;;14.50;8.40;;;;;;;11.35;63.12;97418.96;222015;182;139003;-76
2023/03/14 21:53:56;;;;;;;12.10;7.50;;;;;;;11.31;62.91;97420.02;223631;182;137756;-77
2023/03/14 21:58:59;;;;;;;11.60;5.80;;;;;;;11.25;62.55;97434.68;223701;182;147527;-76
2023/03/14 22:04:03;;;;;;;9.30;5.70;;;;;;;11.29;62.01;97439.98;223799;182;138859;-75
2023/03/14 22:09:06;;;;;;;9.10;5.10;;;;;;;11.41;61.44;97452.55;223759;183;137362;-75
2023/03/14 22:14:09;;;;;;;7.00;4.50;;;;;;;11.47;60.72;97458.55;223504;182;148565;-73
2023/03/14 22:19:13;;;;;;;6.00;4.00;;;;;;;11.49;60.26;97464.25;223760;182;139529;-73
2023/03/14 22:24:16;;;;;;;10.20;4.00;;;;;;;11.55;59.90;97463.47;223698;182;137042;-73
2023/03/14 22:29:23;;;;;;;7.20;3.70;;;;;;;11.57;59.43;97472.20;222640;181;147967;-73
2023/03/14 22:34:30;;;;;;;4.80;3.40;;;;;;;11.61;59.16;97477.54;223581;182;138021;-74
2023/03/14 22:39:33;;;;;;;5.30;2.70;;;;;;;11.68;59.01;97479.55;223608;182;136662;-74
2023/03/14 22:44:37;;;;;;;5.10;2.80;;;;;;;11.75;58.68;97476.45;223796;182;147166;-73
2023/03/14 22:49:40;;;;;;;5.20;2.70;;;;;;;11.79;58.39;97471.66;223772;182;138839;-74
2023/03/14 22:54:44;;;;;;;6.30;2.30;;;;;;;11.77;58.14;97472.35;223799;182;136940;-75
2023/03/14 22:59:47;;;;;;;4.30;2.20;;;;;;;11.76;57.98;97472.59;223653;182;148083;-76
2023/03/14 23:04:51;;;;;;;3.00;1.80;;;;;;;11.77;57.69;97476.59;223578;194;139382;-75
2023/03/14 23:09:54;;;;;;;2.90;2.00;;;;;;;11.77;57.59;97484.19;223398;182;137430;-74
2023/03/14 23:14:58;;;;;;;2.90;1.70;;;;;;;11.82;57.45;97489.41;223485;187;146934;-75
2023/03/14 23:20:05;;;;;;;4.50;1.90;;;;;;;11.85;57.29;97501.66;223525;183;138735;-74
2023/03/14 23:25:09;;;;;;;4.50;1.80;;;;;;;11.84;57.27;97505.82;223512;215;136763;-74
2023/03/14 23:30:15;;;;;;;2.80;1.90;;;;;;;11.86;57.26;97511.36;223508;215;147221;-74
2023/03/14 23:35:18;;;;;;;2.70;1.70;;;;;;;11.88;57.26;97521.87;223037;193;138424;-74
2023/03/14 23:40:21;;;;;;;3.80;2.00;;;;;;;11.87;57.31;97534.70;223507;191;137164;-74
2023/03/14 23:45:25;;;;;;;5.90;2.30;;;;;;;11.89;57.34;97537.05;223558;181;146823;-74
2023/03/14 23:50:28;;;;;;;3.10;2.00;;;;;;;11.83;57.29;97549.45;223665;183;139384;-74
2023/03/14 23:55:32;;;;;;;3.90;3.00;;;;;;;11.78;57.62;97565.89;223868;182;137182;-73
